sensor_id;sensor_type;location;lat;lon;timestamp;temperature;humidity
16064;DHT22;8136;53.172;8.256;2024-01-30T03:35:28;6.90;99.90
16064;DHT22;8136;53.172;8.256;2024-01-30T03:42:21;6.90;99.90
16064;DHT22;8136;53.172;8.256;2024-01-30T06:28:13;6.80;99.90
16064;DHT22;8136;53.172;8.256;2024-01-30T06:30:52;6.70;99.90
16064;DHT22;8136;53.172;8.256;2024-01-30T06:33:30;6.70;99.90
16064;DHT22;8136;53.172;8.256;2024-01-30T06:35:57;6.70;99.90
16064;DHT22;8136;53.172;8.256;2024-01-30T06:55:36;6.80;99.90
16064;DHT22;8136;53.172;8.256;2024-01-30T07:02:37;6.80;99.90
16064;DHT22;8136;53.172;8.256;2024-01-30T07:12:53;6.90;99.90
16064;DHT22;8136;53.172;8.256;2024-01-30T07:15:26;6.80;99.90
16064;DHT22;8136;53.172;8.256;2024-01-30T07:17:57;6.90;99.90
16064;DHT22;8136;53.172;8.256;2024-01-30T07:20:25;7.00;99.90
16064;DHT22;8136;53.172;8.256;2024-01-30T07:23:06;7.00;99.90
16064;DHT22;8136;53.172;8.256;2024-01-30T07:25:42;7.00;99.90
16064;DHT22;8136;53.172;8.256;2024-01-30T07:28:13;7.00;99.90
16064;DHT22;8136;53.172;8.256;2024-01-30T07:30:45;7.00;99.90
16064;DHT22;8136;53.172;8.256;2024-01-30T07:33:13;7.10;99.90
16064;DHT22;8136;53.172;8.256;2024-01-30T07:35:48;7.10;99.90
16064;DHT22;8136;53.172;8.256;2024-01-30T07:38:15;7.10;99.90
16064;DHT22;8136;53.172;8.256;2024-01-30T07:40:48;7.10;99.90
16064;DHT22;8136;53.172;8.256;2024-01-30T07:43:26;7.10;99.90
16064;DHT22;8136;53.172;8.256;2024-01-30T07:46:01;7.20;99.90
16064;DHT22;8136;53.172;8.256;2024-01-30T07:48:28;7.20;99.90
16064;DHT22;8136;53.172;8.256;2024-01-30T07:50:55;7.20;99.90
16064;DHT22;8136;53.172;8.256;2024-01-30T07:53:29;7.20;99.90
16064;DHT22;8136;53.172;8.256;2024-01-30T07:56:07;7.30;99.90
16064;DHT22;8136;53.172;8.256;2024-01-30T07:58:53;7.30;99.90
16064;DHT22;8136;53.172;8.256;2024-01-30T08:01:20;7.30;99.90
16064;DHT22;8136;53.172;8.256;2024-01-30T08:03:56;7.30;99.90
16064;DHT22;8136;53.172;8.256;2024-01-30T08:06:32;7.40;99.90
16064;DHT22;8136;53.172;8.256;2024-01-30T08:09:03;7.50;99.90
16064;DHT22;8136;53.172;8.256;2024-01-30T08:11:33;7.50;99.90
16064;DHT22;8136;53.172;8.256;2024-01-30T08:14:16;7.50;99.90
16064;DHT22;8136;53.172;8.256;2024-01-30T08:16:58;7.50;99.90
16064;DHT22;8136;53.172;8.256;2024-01-30T08:19:49;7.60;99.90
16064;DHT22;8136;53.172;8.256;2024-01-30T08:22:16;7.60;99.90
16064;DHT22;8136;53.172;8.256;2024-01-30T08:24:54;7.70;99.90
16064;DHT22;8136;53.172;8.256;2024-01-30T08:27:35;7.70;99.90
16064;DHT22;8136;53.172;8.256;2024-01-30T10:46:31;10.30;99.90
16064;DHT22;8136;53.172;8.256;2024-01-30T10:48:59;10.30;99.90
16064;DHT22;8136;53.172;8.256;2024-01-30T10:51:28;10.40;99.90
16064;DHT22;8136;53.172;8.256;2024-01-30T10:53:56;10.50;99.90
16064;DHT22;8136;53.172;8.256;2024-01-30T10:56:24;10.50;99.90
16064;DHT22;8136;53.172;8.256;2024-01-30T10:58:51;10.50;99.90
16064;DHT22;8136;53.172;8.256;2024-01-30T11:01:19;10.50;99.90
16064;DHT22;8136;53.172;8.256;2024-01-30T11:03:50;10.60;99.90
16064;DHT22;8136;53.172;8.256;2024-01-30T11:06:18;10.60;99.90
16064;DHT22;8136;53.172;8.256;2024-01-30T11:08:45;10.70;99.90
16064;DHT22;8136;53.172;8.256;2024-01-30T11:11:12;10.70;99.90
16064;DHT22;8136;53.172;8.256;2024-01-30T11:13:42;10.70;99.90
16064;DHT22;8136;53.172;8.256;2024-01-30T11:16:11;10.80;99.90
16064;DHT22;8136;53.172;8.256;2024-01-30T11:18:39;10.80;99.90
16064;DHT22;8136;53.172;8.256;2024-01-30T11:21:07;10.80;99.90
16064;DHT22;8136;53.172;8.256;2024-01-30T11:23:34;10.80;99.90
16064;DHT22;8136;53.172;8.256;2024-01-30T11:26:04;10.80;99.90
16064;DHT22;8136;53.172;8.256;2024-01-30T11:28:34;10.80;99.90
16064;DHT22;8136;53.172;8.256;2024-01-30T11:31:04;10.90;99.90
16064;DHT22;8136;53.172;8.256;2024-01-30T11:33:32;10.90;99.90
16064;DHT22;8136;53.172;8.256;2024-01-30T11:36:00;11.00;99.90
16064;DHT22;8136;53.172;8.256;2024-01-30T11:38:45;11.00;99.90
16064;DHT22;8136;53.172;8.256;2024-01-30T11:41:40;11.00;99.90
16064;DHT22;8136;53.172;8.256;2024-01-30T11:44:07;11.10;99.90
16064;DHT22;8136;53.172;8.256;2024-01-30T11:46:35;11.10;99.90
16064;DHT22;8136;53.172;8.256;2024-01-30T11:49:02;11.10;99.90
16064;DHT22;8136;53.172;8.256;2024-01-30T11:51:31;11.20;99.90
16064;DHT22;8136;53.172;8.256;2024-01-30T11:53:59;11.20;99.90
16064;DHT22;8136;53.172;8.256;2024-01-30T11:56:26;11.20;99.90
16064;DHT22;8136;53.172;8.256;2024-01-30T11:58:53;11.20;99.90
16064;DHT22;8136;53.172;8.256;2024-01-30T12:01:25;11.30;99.90
16064;DHT22;8136;53.172;8.256;2024-01-30T12:03:53;11.30;99.90
16064;DHT22;8136;53.172;8.256;2024-01-30T12:06:20;11.30;99.90
16064;DHT22;8136;53.172;8.256;2024-01-30T12:08:56;11.30;99.90
16064;DHT22;8136;53.172;8.256;2024-01-30T12:11:25;11.40;99.90
16064;DHT22;8136;53.172;8.256;2024-01-30T12:13:52;11.40;99.90
16064;DHT22;8136;53.172;8.256;2024-01-30T12:16:20;11.40;99.90
16064;DHT22;8136;53.172;8.256;2024-01-30T12:18:47;11.40;99.90
16064;DHT22;8136;53.172;8.256;2024-01-30T12:21:18;11.40;99.90
16064;DHT22;8136;53.172;8.256;2024-01-30T12:23:51;11.40;99.90
16064;DHT22;8136;53.172;8.256;2024-01-30T12:26:18;11.40;99.90
16064;DHT22;8136;53.172;8.256;2024-01-30T12:28:50;11.40;99.90
16064;DHT22;8136;53.172;8.256;2024-01-30T12:31:17;11.40;99.90
16064;DHT22;8136;53.172;8.256;2024-01-30T12:33:44;11.40;99.90
16064;DHT22;8136;53.172;8.256;2024-01-30T12:36:17;11.40;99.90
16064;DHT22;8136;53.172;8.256;2024-01-30T12:38:44;11.40;99.90
16064;DHT22;8136;53.172;8.256;2024-01-30T12:41:11;11.40;99.90
16064;DHT22;8136;53.172;8.256;2024-01-30T12:43:40;11.40;99.90
16064;DHT22;8136;53.172;8.256;2024-01-30T12:46:08;11.40;99.90
16064;DHT22;8136;53.172;8.256;2024-01-30T12:48:35;11.40;99.90
16064;DHT22;8136;53.172;8.256;2024-01-30T12:51:03;11.50;99.90
16064;DHT22;8136;53.172;8.256;2024-01-30T12:53:31;11.50;99.90
16064;DHT22;8136;53.172;8.256;2024-01-30T12:55:58;11.40;99.90
16064;DHT22;8136;53.172;8.256;2024-01-30T12:58:25;11.50;99.90
16064;DHT22;8136;53.172;8.256;2024-01-30T13:00:53;11.50;99.90
16064;DHT22;8136;53.172;8.256;2024-01-30T13:03:23;11.40;99.90
16064;DHT22;8136;53.172;8.256;2024-01-30T13:05:50;11.40;99.90
16064;DHT22;8136;53.172;8.256;2024-01-30T13:08:17;11.40;99.90
16064;DHT22;8136;53.172;8.256;2024-01-30T13:10:44;11.40;99.90
16064;DHT22;8136;53.172;8.256;2024-01-30T13:13:13;11.40;99.90
16064;DHT22;8136;53.172;8.256;2024-01-30T13:15:40;11.40;99.90
16064;DHT22;8136;53.172;8.256;2024-01-30T13:18:07;11.40;99.90
16064;DHT22;8136;53.172;8.256;2024-01-30T13:20:35;11.50;99.90
16064;DHT22;8136;53.172;8.256;2024-01-30T13:23:02;11.50;99.90
16064;DHT22;8136;53.172;8.256;2024-01-30T13:25:30;11.50;99.90
16064;DHT22;8136;53.172;8.256;2024-01-30T13:27:58;11.60;99.90
16064;DHT22;8136;53.172;8.256;2024-01-30T13:30:26;11.60;99.90
16064;DHT22;8136;53.172;8.256;2024-01-30T13:32:53;11.50;99.90
16064;DHT22;8136;53.172;8.256;2024-01-30T13:35:21;11.50;99.90
16064;DHT22;8136;53.172;8.256;2024-01-30T13:37:49;11.60;99.90
16064;DHT22;8136;53.172;8.256;2024-01-30T13:40:19;11.60;99.90
16064;DHT22;8136;53.172;8.256;2024-01-30T13:42:48;11.60;99.90
16064;DHT22;8136;53.172;8.256;2024-01-30T13:45:15;11.60;99.90
16064;DHT22;8136;53.172;8.256;2024-01-30T13:47:42;11.60;99.90
16064;DHT22;8136;53.172;8.256;2024-01-30T13:50:09;11.60;99.90
16064;DHT22;8136;53.172;8.256;2024-01-30T13:52:40;11.60;99.90
16064;DHT22;8136;53.172;8.256;2024-01-30T13:55:09;11.60;99.90
16064;DHT22;8136;53.172;8.256;2024-01-30T13:57:36;11.60;99.90
16064;DHT22;8136;53.172;8.256;2024-01-30T14:00:04;11.70;99.90
16064;DHT22;8136;53.172;8.256;2024-01-30T14:02:34;11.70;99.90
16064;DHT22;8136;53.172;8.256;2024-01-30T14:05:01;11.80;99.90
16064;DHT22;8136;53.172;8.256;2024-01-30T14:07:29;11.90;99.90
16064;DHT22;8136;53.172;8.256;2024-01-30T14:10:00;12.00;99.90
16064;DHT22;8136;53.172;8.256;2024-01-30T14:12:32;12.00;99.90
16064;DHT22;8136;53.172;8.256;2024-01-30T14:15:03;12.00;99.90
16064;DHT22;8136;53.172;8.256;2024-01-30T14:17:30;12.00;99.90
16064;DHT22;8136;53.172;8.256;2024-01-30T14:20:05;12.00;99.90
16064;DHT22;8136;53.172;8.256;2024-01-30T14:22:34;12.00;99.90
16064;DHT22;8136;53.172;8.256;2024-01-30T14:25:01;12.00;99.90
16064;DHT22;8136;53.172;8.256;2024-01-30T14:27:30;12.00;99.90
16064;DHT22;8136;53.172;8.256;2024-01-30T14:30:00;12.00;99.90
16064;DHT22;8136;53.172;8.256;2024-01-30T14:32:29;12.00;99.90
16064;DHT22;8136;53.172;8.256;2024-01-30T14:34:56;11.90;99.90
16064;DHT22;8136;53.172;8.256;2024-01-30T14:37:23;12.00;99.90
16064;DHT22;8136;53.172;8.256;2024-01-30T14:39:50;12.00;99.90
16064;DHT22;8136;53.172;8.256;2024-01-30T14:42:17;11.90;99.90
16064;DHT22;8136;53.172;8.256;2024-01-30T14:44:46;12.00;99.90
16064;DHT22;8136;53.172;8.256;2024-01-30T14:47:13;11.90;99.90
16064;DHT22;8136;53.172;8.256;2024-01-30T14:49:40;12.00;99.90
16064;DHT22;8136;53.172;8.256;2024-01-30T14:52:07;12.00;99.90
16064;DHT22;8136;53.172;8.256;2024-01-30T14:55:05;12.00;99.90
16064;DHT22;8136;53.172;8.256;2024-01-30T14:57:32;12.00;99.90
16064;DHT22;8136;53.172;8.256;2024-01-30T15:00:08;11.90;99.90
16064;DHT22;8136;53.172;8.256;2024-01-30T15:02:35;11.90;99.90
16064;DHT22;8136;53.172;8.256;2024-01-30T15:05:03;11.90;99.90
16064;DHT22;8136;53.172;8.256;2024-01-30T15:07:30;11.80;99.90
16064;DHT22;8136;53.172;8.256;2024-01-30T15:09:57;11.90;99.90
16064;DHT22;8136;53.172;8.256;2024-01-30T15:12:36;11.80;99.90
16064;DHT22;8136;53.172;8.256;2024-01-30T15:15:06;11.80;99.90
16064;DHT22;8136;53.172;8.256;2024-01-30T15:17:46;11.70;99.90
16064;DHT22;8136;53.172;8.256;2024-01-30T15:20:20;11.70;99.90
16064;DHT22;8136;53.172;8.256;2024-01-30T15:22:47;11.60;99.90
16064;DHT22;8136;53.172;8.256;2024-01-30T15:25:14;11.50;99.90
16064;DHT22;8136;53.172;8.256;2024-01-30T15:27:43;11.40;99.90
16064;DHT22;8136;53.172;8.256;2024-01-30T15:30:22;11.40;99.90
16064;DHT22;8136;53.172;8.256;2024-01-30T15:32:49;11.30;99.90
16064;DHT22;8136;53.172;8.256;2024-01-30T15:35:17;11.30;99.90
16064;DHT22;8136;53.172;8.256;2024-01-30T15:37:44;11.20;99.90
16064;DHT22;8136;53.172;8.256;2024-01-30T15:40:11;11.20;99.90
16064;DHT22;8136;53.172;8.256;2024-01-30T15:42:38;11.10;99.90
16064;DHT22;8136;53.172;8.256;2024-01-30T15:45:07;11.10;99.90
16064;DHT22;8136;53.172;8.256;2024-01-30T15:47:35;11.10;99.90
16064;DHT22;8136;53.172;8.256;2024-01-30T15:50:03;11.00;99.90
16064;DHT22;8136;53.172;8.256;2024-01-30T15:52:30;11.00;99.90
16064;DHT22;8136;53.172;8.256;2024-01-30T15:54:57;11.00;99.90
16064;DHT22;8136;53.172;8.256;2024-01-30T15:57:24;11.00;99.90
16064;DHT22;8136;53.172;8.256;2024-01-30T15:59:54;10.90;99.90
16064;DHT22;8136;53.172;8.256;2024-01-30T16:02:21;10.90;99.90
16064;DHT22;8136;53.172;8.256;2024-01-30T16:04:49;10.90;99.90
16064;DHT22;8136;53.172;8.256;2024-01-30T16:07:16;10.90;99.90
16064;DHT22;8136;53.172;8.256;2024-01-30T16:09:43;10.90;99.90
16064;DHT22;8136;53.172;8.256;2024-01-30T16:12:11;10.90;99.90
16064;DHT22;8136;53.172;8.256;2024-01-30T16:14:38;10.80;99.90
16064;DHT22;8136;53.172;8.256;2024-01-30T16:17:05;10.80;99.90
16064;DHT22;8136;53.172;8.256;2024-01-30T16:19:32;10.80;99.90
16064;DHT22;8136;53.172;8.256;2024-01-30T16:22:00;10.80;99.90
16064;DHT22;8136;53.172;8.256;2024-01-30T16:24:27;10.80;99.90
16064;DHT22;8136;53.172;8.256;2024-01-30T16:26:54;10.70;99.90
16064;DHT22;8136;53.172;8.256;2024-01-30T16:29:22;10.80;99.90
16064;DHT22;8136;53.172;8.256;2024-01-30T16:31:49;10.80;99.90
16064;DHT22;8136;53.172;8.256;2024-01-30T16:34:20;10.70;99.90
16064;DHT22;8136;53.172;8.256;2024-01-30T16:36:50;10.70;99.90
16064;DHT22;8136;53.172;8.256;2024-01-30T16:39:18;10.70;99.90
16064;DHT22;8136;53.172;8.256;2024-01-30T16:41:45;10.70;99.90
16064;DHT22;8136;53.172;8.256;2024-01-30T16:44:12;10.70;99.90
16064;DHT22;8136;53.172;8.256;2024-01-30T16:46:39;10.70;99.90
16064;DHT22;8136;53.172;8.256;2024-01-30T16:49:06;10.70;99.90
16064;DHT22;8136;53.172;8.256;2024-01-30T16:51:33;10.70;99.90
